sensor_id;sensor_type;location;lat;lon;timestamp;P1;durP1;ratioP1;P2;durP2;ratioP2
53503;SDS011;39387;50.998;22.340;2023-02-19T00:00:15;6.82;;;4.40;;
53503;SDS011;39387;50.998;22.340;2023-02-19T00:03:03;7.40;;;4.18;;
53503;SDS011;39387;50.998;22.340;2023-02-19T00:05:30;7.32;;;4.63;;
53503;SDS011;39387;50.998;22.340;2023-02-19T00:07:58;6.10;;;3.60;;
53503;SDS011;39387;50.998;22.340;2023-02-19T00:10:26;6.70;;;4.00;;
53503;SDS011;39387;50.998;22.340;2023-02-19T00:12:53;6.40;;;3.58;;
53503;SDS011;39387;50.998;22.340;2023-02-19T00:15:20;8.48;;;4.57;;
53503;SDS011;39387;50.998;22.340;2023-02-19T00:17:48;7.13;;;3.35;;
53503;SDS011;39387;50.998;22.340;2023-02-19T00:20:15;7.40;;;3.25;;
53503;SDS011;39387;50.998;22.340;2023-02-19T00:22:42;6.40;;;3.88;;
53503;SDS011;39387;50.998;22.340;2023-02-19T00:25:11;6.15;;;3.58;;
53503;SDS011;39387;50.998;22.340;2023-02-19T00:27:38;6.22;;;3.55;;
53503;SDS011;39387;50.998;22.340;2023-02-19T00:30:06;6.63;;;3.78;;
53503;SDS011;39387;50.998;22.340;2023-02-19T00:32:34;5.60;;;3.20;;
53503;SDS011;39387;50.998;22.340;2023-02-19T00:35:01;6.38;;;4.07;;
53503;SDS011;39387;50.998;22.340;2023-02-19T00:37:28;5.57;;;3.17;;
53503;SDS011;39387;50.998;22.340;2023-02-19T00:39:56;6.65;;;3.67;;
53503;SDS011;39387;50.998;22.340;2023-02-19T00:42:24;6.88;;;3.17;;
53503;SDS011;39387;50.998;22.340;2023-02-19T00:44:52;8.90;;;3.50;;
53503;SDS011;39387;50.998;22.340;2023-02-19T00:47:19;6.25;;;3.20;;
53503;SDS011;39387;50.998;22.340;2023-02-19T00:49:46;7.90;;;2.90;;
53503;SDS011;39387;50.998;22.340;2023-02-19T00:52:13;4.50;;;3.05;;
53503;SDS011;39387;50.998;22.340;2023-02-19T00:54:41;5.90;;;2.90;;
53503;SDS011;39387;50.998;22.340;2023-02-19T00:57:08;5.57;;;3.08;;
53503;SDS011;39387;50.998;22.340;2023-02-19T00:59:37;2.92;;;2.20;;
53503;SDS011;39387;50.998;22.340;2023-02-19T01:02:04;4.90;;;2.58;;
53503;SDS011;39387;50.998;22.340;2023-02-19T01:04:31;5.60;;;2.80;;
53503;SDS011;39387;50.998;22.340;2023-02-19T01:06:59;6.97;;;3.10;;
53503;SDS011;39387;50.998;22.340;2023-02-19T01:09:26;5.80;;;3.20;;
53503;SDS011;39387;50.998;22.340;2023-02-19T01:11:53;5.70;;;2.95;;
53503;SDS011;39387;50.998;22.340;2023-02-19T01:14:21;5.03;;;2.97;;
53503;SDS011;39387;50.998;22.340;2023-02-19T01:16:49;5.18;;;2.72;;
53503;SDS011;39387;50.998;22.340;2023-02-19T01:19:16;6.07;;;3.00;;
53503;SDS011;39387;50.998;22.340;2023-02-19T01:21:44;6.38;;;3.20;;
53503;SDS011;39387;50.998;22.340;2023-02-19T01:24:11;5.32;;;3.20;;
53503;SDS011;39387;50.998;22.340;2023-02-19T01:26:38;6.00;;;3.33;;
53503;SDS011;39387;50.998;22.340;2023-02-19T01:29:06;5.70;;;3.20;;
53503;SDS011;39387;50.998;22.340;2023-02-19T01:31:33;5.47;;;3.13;;
53503;SDS011;39387;50.998;22.340;2023-02-19T01:34:02;6.47;;;3.55;;
53503;SDS011;39387;50.998;22.340;2023-02-19T01:36:31;7.97;;;3.63;;
53503;SDS011;39387;50.998;22.340;2023-02-19T01:39:00;7.65;;;3.50;;
53503;SDS011;39387;50.998;22.340;2023-02-19T01:41:29;6.88;;;3.88;;
53503;SDS011;39387;50.998;22.340;2023-02-19T01:43:59;6.47;;;3.55;;
53503;SDS011;39387;50.998;22.340;2023-02-19T01:46:28;7.38;;;3.72;;
53503;SDS011;39387;50.998;22.340;2023-02-19T01:48:58;8.45;;;3.80;;
53503;SDS011;39387;50.998;22.340;2023-02-19T01:51:29;6.82;;;3.25;;
53503;SDS011;39387;50.998;22.340;2023-02-19T01:53:58;6.97;;;3.75;;
53503;SDS011;39387;50.998;22.340;2023-02-19T01:56:26;6.22;;;3.60;;
53503;SDS011;39387;50.998;22.340;2023-02-19T01:58:54;7.97;;;3.35;;
53503;SDS011;39387;50.998;22.340;2023-02-19T02:01:22;7.18;;;3.80;;
53503;SDS011;39387;50.998;22.340;2023-02-19T02:03:50;6.97;;;3.28;;
53503;SDS011;39387;50.998;22.340;2023-02-19T02:06:19;7.90;;;3.60;;
53503;SDS011;39387;50.998;22.340;2023-02-19T02:08:50;5.40;;;3.40;;
53503;SDS011;39387;50.998;22.340;2023-02-19T02:11:36;5.43;;;3.22;;
53503;SDS011;39387;50.998;22.340;2023-02-19T02:14:04;8.45;;;4.05;;
53503;SDS011;39387;50.998;22.340;2023-02-19T02:16:33;6.47;;;3.28;;
53503;SDS011;39387;50.998;22.340;2023-02-19T02:19:13;5.28;;;3.63;;
53503;SDS011;39387;50.998;22.340;2023-02-19T02:21:55;8.00;;;3.88;;
53503;SDS011;39387;50.998;22.340;2023-02-19T02:24:55;7.15;;;3.38;;
53503;SDS011;39387;50.998;22.340;2023-02-19T02:27:50;8.48;;;3.65;;
53503;SDS011;39387;50.998;22.340;2023-02-19T02:30:24;5.95;;;3.00;;
53503;SDS011;39387;50.998;22.340;2023-02-19T02:32:56;6.80;;;3.58;;
53503;SDS011;39387;50.998;22.340;2023-02-19T02:35:29;7.53;;;3.33;;
53503;SDS011;39387;50.998;22.340;2023-02-19T02:38:00;7.50;;;3.75;;
53503;SDS011;39387;50.998;22.340;2023-02-19T02:40:29;5.88;;;3.10;;
53503;SDS011;39387;50.998;22.340;2023-02-19T02:42:56;6.32;;;3.40;;
53503;SDS011;39387;50.998;22.340;2023-02-19T02:45:27;7.72;;;3.25;;
53503;SDS011;39387;50.998;22.340;2023-02-19T02:48:03;5.88;;;3.63;;
53503;SDS011;39387;50.998;22.340;2023-02-19T02:50:35;5.95;;;3.28;;
53503;SDS011;39387;50.998;22.340;2023-02-19T02:53:07;8.13;;;3.75;;
53503;SDS011;39387;50.998;22.340;2023-02-19T02:55:54;7.50;;;3.60;;
53503;SDS011;39387;50.998;22.340;2023-02-19T02:58:22;7.53;;;3.80;;
53503;SDS011;39387;50.998;22.340;2023-02-19T03:00:53;7.15;;;3.28;;
53503;SDS011;39387;50.998;22.340;2023-02-19T03:03:41;7.38;;;3.40;;
53503;SDS011;39387;50.998;22.340;2023-02-19T03:06:10;9.88;;;3.75;;
53503;SDS011;39387;50.998;22.340;2023-02-19T03:08:40;4.63;;;2.85;;
53503;SDS011;39387;50.998;22.340;2023-02-19T03:11:17;4.97;;;3.17;;
53503;SDS011;39387;50.998;22.340;2023-02-19T03:14:25;6.80;;;3.42;;
53503;SDS011;39387;50.998;22.340;2023-02-19T03:17:14;6.47;;;3.85;;
53503;SDS011;39387;50.998;22.340;2023-02-19T03:20:02;7.13;;;4.03;;
53503;SDS011;39387;50.998;22.340;2023-02-19T03:22:32;7.95;;;4.20;;
53503;SDS011;39387;50.998;22.340;2023-02-19T03:25:01;8.25;;;3.92;;
53503;SDS011;39387;50.998;22.340;2023-02-19T03:27:48;5.53;;;3.00;;
53503;SDS011;39387;50.998;22.340;2023-02-19T03:30:18;9.05;;;4.43;;
53503;SDS011;39387;50.998;22.340;2023-02-19T03:32:49;6.75;;;3.45;;
53503;SDS011;39387;50.998;22.340;2023-02-19T03:35:20;12.43;;;4.07;;
53503;SDS011;39387;50.998;22.340;2023-02-19T03:37:50;6.75;;;3.40;;
53503;SDS011;39387;50.998;22.340;2023-02-19T03:40:20;5.15;;;2.83;;
53503;SDS011;39387;50.998;22.340;2023-02-19T03:42:53;5.50;;;2.90;;
53503;SDS011;39387;50.998;22.340;2023-02-19T03:45:30;7.57;;;3.65;;
53503;SDS011;39387;50.998;22.340;2023-02-19T03:48:06;6.75;;;3.78;;
53503;SDS011;39387;50.998;22.340;2023-02-19T03:50:44;7.45;;;3.63;;
53503;SDS011;39387;50.998;22.340;2023-02-19T03:55:52;6.95;;;3.65;;
53503;SDS011;39387;50.998;22.340;2023-02-19T03:58:25;6.65;;;3.53;;
53503;SDS011;39387;50.998;22.340;2023-02-19T04:00:55;6.80;;;3.63;;
53503;SDS011;39387;50.998;22.340;2023-02-19T04:03:27;8.50;;;4.45;;
53503;SDS011;39387;50.998;22.340;2023-02-19T04:05:58;6.45;;;3.83;;
53503;SDS011;39387;50.998;22.340;2023-02-19T04:08:28;6.63;;;3.80;;
53503;SDS011;39387;50.998;22.340;2023-02-19T04:10:57;9.27;;;3.88;;
53503;SDS011;39387;50.998;22.340;2023-02-19T04:13:26;7.82;;;3.50;;
53503;SDS011;39387;50.998;22.340;2023-02-19T04:15:59;11.15;;;4.43;;
53503;SDS011;39387;50.998;22.340;2023-02-19T04:18:30;7.22;;;3.72;;
53503;SDS011;39387;50.998;22.340;2023-02-19T04:20:59;10.27;;;4.30;;
53503;SDS011;39387;50.998;22.340;2023-02-19T04:23:27;7.47;;;4.03;;
53503;SDS011;39387;50.998;22.340;2023-02-19T04:25:57;7.82;;;4.07;;
53503;SDS011;39387;50.998;22.340;2023-02-19T04:28:26;9.25;;;4.22;;
53503;SDS011;39387;50.998;22.340;2023-02-19T04:30:54;7.57;;;4.20;;
53503;SDS011;39387;50.998;22.340;2023-02-19T04:33:21;10.02;;;4.20;;
53503;SDS011;39387;50.998;22.340;2023-02-19T04:35:50;8.35;;;3.83;;
53503;SDS011;39387;50.998;22.340;2023-02-19T04:38:17;6.65;;;3.47;;
53503;SDS011;39387;50.998;22.340;2023-02-19T04:40:44;7.65;;;3.08;;
53503;SDS011;39387;50.998;22.340;2023-02-19T04:43:12;9.63;;;4.38;;
53503;SDS011;39387;50.998;22.340;2023-02-19T04:45:39;9.60;;;4.28;;
53503;SDS011;39387;50.998;22.340;2023-02-19T04:48:07;9.32;;;4.40;;
53503;SDS011;39387;50.998;22.340;2023-02-19T04:50:36;6.68;;;3.42;;
53503;SDS011;39387;50.998;22.340;2023-02-19T04:53:05;7.35;;;3.78;;
53503;SDS011;39387;50.998;22.340;2023-02-19T04:55:35;7.90;;;3.13;;
53503;SDS011;39387;50.998;22.340;2023-02-19T04:58:03;7.82;;;3.83;;
53503;SDS011;39387;50.998;22.340;2023-02-19T05:00:31;6.32;;;2.95;;
53503;SDS011;39387;50.998;22.340;2023-02-19T05:02:59;6.13;;;3.00;;
53503;SDS011;39387;50.998;22.340;2023-02-19T05:05:26;4.72;;;2.90;;
53503;SDS011;39387;50.998;22.340;2023-02-19T05:07:54;4.80;;;2.58;;
53503;SDS011;39387;50.998;22.340;2023-02-19T05:10:22;10.05;;;2.60;;
53503;SDS011;39387;50.998;22.340;2023-02-19T05:12:50;6.22;;;2.20;;
53503;SDS011;39387;50.998;22.340;2023-02-19T05:15:17;4.00;;;2.00;;
53503;SDS011;39387;50.998;22.340;2023-02-19T05:17:44;2.78;;;1.58;;
53503;SDS011;39387;50.998;22.340;2023-02-19T05:20:12;6.05;;;2.47;;
53503;SDS011;39387;50.998;22.340;2023-02-19T05:22:39;6.07;;;2.17;;
53503;SDS011;39387;50.998;22.340;2023-02-19T05:25:06;7.05;;;2.30;;
53503;SDS011;39387;50.998;22.340;2023-02-19T05:27:35;5.00;;;2.10;;
53503;SDS011;39387;50.998;22.340;2023-02-19T05:30:03;3.67;;;2.25;;
53503;SDS011;39387;50.998;22.340;2023-02-19T05:32:30;4.57;;;2.13;;
53503;SDS011;39387;50.998;22.340;2023-02-19T05:34:57;5.43;;;2.40;;
53503;SDS011;39387;50.998;22.340;2023-02-19T05:37:25;7.78;;;2.55;;
53503;SDS011;39387;50.998;22.340;2023-02-19T05:39:53;6.22;;;2.33;;
53503;SDS011;39387;50.998;22.340;2023-02-19T05:42:20;3.70;;;1.83;;
53503;SDS011;39387;50.998;22.340;2023-02-19T05:44:49;5.75;;;2.47;;
53503;SDS011;39387;50.998;22.340;2023-02-19T05:47:16;7.15;;;2.40;;
53503;SDS011;39387;50.998;22.340;2023-02-19T05:49:43;4.90;;;2.55;;
53503;SDS011;39387;50.998;22.340;2023-02-19T05:52:11;3.92;;;2.25;;
53503;SDS011;39387;50.998;22.340;2023-02-19T05:54:39;5.80;;;2.53;;
53503;SDS011;39387;50.998;22.340;2023-02-19T05:57:06;5.78;;;2.40;;
53503;SDS011;39387;50.998;22.340;2023-02-19T05:59:34;5.05;;;2.30;;
53503;SDS011;39387;50.998;22.340;2023-02-19T06:02:02;5.25;;;3.10;;
53503;SDS011;39387;50.998;22.340;2023-02-19T06:04:30;5.55;;;3.05;;
53503;SDS011;39387;50.998;22.340;2023-02-19T06:06:57;5.15;;;2.67;;
53503;SDS011;39387;50.998;22.340;2023-02-19T06:09:24;5.55;;;2.90;;
53503;SDS011;39387;50.998;22.340;2023-02-19T06:11:51;6.07;;;2.92;;
53503;SDS011;39387;50.998;22.340;2023-02-19T06:14:19;3.92;;;2.30;;
53503;SDS011;39387;50.998;22.340;2023-02-19T06:16:46;5.75;;;2.65;;
53503;SDS011;39387;50.998;22.340;2023-02-19T06:19:15;6.93;;;3.45;;
53503;SDS011;39387;50.998;22.340;2023-02-19T06:21:43;7.03;;;2.95;;
53503;SDS011;39387;50.998;22.340;2023-02-19T06:24:11;5.45;;;2.95;;
53503;SDS011;39387;50.998;22.340;2023-02-19T06:26:38;6.72;;;2.90;;
53503;SDS011;39387;50.998;22.340;2023-02-19T06:29:05;7.10;;;3.00;;
53503;SDS011;39387;50.998;22.340;2023-02-19T06:31:34;5.10;;;2.65;;
53503;SDS011;39387;50.998;22.340;2023-02-19T06:34:02;6.07;;;2.80;;
53503;SDS011;39387;50.998;22.340;2023-02-19T06:36:32;5.85;;;3.10;;
53503;SDS011;39387;50.998;22.340;2023-02-19T06:38:59;5.65;;;3.00;;
53503;SDS011;39387;50.998;22.340;2023-02-19T06:41:27;5.38;;;2.80;;
53503;SDS011;39387;50.998;22.340;2023-02-19T06:43:55;7.88;;;3.80;;
53503;SDS011;39387;50.998;22.340;2023-02-19T06:46:23;8.10;;;3.90;;
53503;SDS011;39387;50.998;22.340;2023-02-19T06:48:50;8.45;;;4.03;;
53503;SDS011;39387;50.998;22.340;2023-02-19T06:51:18;9.30;;;4.50;;
53503;SDS011;39387;50.998;22.340;2023-02-19T06:53:49;8.87;;;3.87;;
53503;SDS011;39387;50.998;22.340;2023-02-19T06:56:21;8.32;;;4.25;;
53503;SDS011;39387;50.998;22.340;2023-02-19T06:58:50;6.50;;;3.53;;
53503;SDS011;39387;50.998;22.340;2023-02-19T07:01:18;10.10;;;4.68;;
53503;SDS011;39387;50.998;22.340;2023-02-19T07:03:45;7.10;;;3.67;;
53503;SDS011;39387;50.998;22.340;2023-02-19T07:06:13;8.00;;;3.47;;
53503;SDS011;39387;50.998;22.340;2023-02-19T07:08:40;7.43;;;3.45;;
53503;SDS011;39387;50.998;22.340;2023-02-19T07:11:09;6.78;;;3.17;;
53503;SDS011;39387;50.998;22.340;2023-02-19T07:13:36;10.52;;;3.75;;
53503;SDS011;39387;50.998;22.340;2023-02-19T07:16:05;7.93;;;3.85;;
53503;SDS011;39387;50.998;22.340;2023-02-19T07:18:34;7.53;;;3.60;;
53503;SDS011;39387;50.998;22.340;2023-02-19T07:21:02;6.60;;;3.60;;
53503;SDS011;39387;50.998;22.340;2023-02-19T07:23:30;5.53;;;3.50;;
53503;SDS011;39387;50.998;22.340;2023-02-19T07:25:58;9.07;;;4.07;;
53503;SDS011;39387;50.998;22.340;2023-02-19T07:28:26;9.80;;;4.30;;
53503;SDS011;39387;50.998;22.340;2023-02-19T07:30:58;8.90;;;4.53;;
53503;SDS011;39387;50.998;22.340;2023-02-19T07:33:26;10.20;;;4.70;;
53503;SDS011;39387;50.998;22.340;2023-02-19T07:35:53;10.23;;;5.13;;
53503;SDS011;39387;50.998;22.340;2023-02-19T07:38:22;9.93;;;4.90;;
53503;SDS011;39387;50.998;22.340;2023-02-19T07:40:50;9.50;;;4.88;;
53503;SDS011;39387;50.998;22.340;2023-02-19T07:43:17;12.10;;;5.07;;
53503;SDS011;39387;50.998;22.340;2023-02-19T07:45:47;10.68;;;6.13;;
53503;SDS011;39387;50.998;22.340;2023-02-19T07:48:14;9.10;;;4.75;;
53503;SDS011;39387;50.998;22.340;2023-02-19T07:50:41;9.23;;;4.95;;
53503;SDS011;39387;50.998;22.340;2023-02-19T07:53:16;7.93;;;4.82;;
53503;SDS011;39387;50.998;22.340;2023-02-19T07:55:44;10.25;;;4.47;;
53503;SDS011;39387;50.998;22.340;2023-02-19T07:58:11;8.00;;;5.13;;
53503;SDS011;39387;50.998;22.340;2023-02-19T08:00:39;10.05;;;5.38;;
53503;SDS011;39387;50.998;22.340;2023-02-19T08:03:08;8.25;;;4.90;;
53503;SDS011;39387;50.998;22.340;2023-02-19T08:05:35;9.43;;;4.60;;
53503;SDS011;39387;50.998;22.340;2023-02-19T08:08:04;8.77;;;4.50;;
53503;SDS011;39387;50.998;22.340;2023-02-19T08:10:32;9.23;;;4.32;;
53503;SDS011;39387;50.998;22.340;2023-02-19T08:13:17;8.20;;;4.47;;
53503;SDS011;39387;50.998;22.340;2023-02-19T08:15:51;10.48;;;5.28;;
53503;SDS011;39387;50.998;22.340;2023-02-19T08:18:21;8.95;;;5.10;;
53503;SDS011;39387;50.998;22.340;2023-02-19T08:20:50;11.23;;;5.00;;
53503;SDS011;39387;50.998;22.340;2023-02-19T08:23:17;8.40;;;4.65;;
53503;SDS011;39387;50.998;22.340;2023-02-19T08:25:46;9.45;;;5.35;;
53503;SDS011;39387;50.998;22.340;2023-02-19T08:28:13;10.85;;;5.10;;
53503;SDS011;39387;50.998;22.340;2023-02-19T08:30:42;9.63;;;4.95;;
53503;SDS011;39387;50.998;22.340;2023-02-19T08:33:10;11.43;;;5.18;;
53503;SDS011;39387;50.998;22.340;2023-02-19T08:35:40;10.27;;;4.72;;
53503;SDS011;39387;50.998;22.340;2023-02-19T08:38:09;8.23;;;4.63;;
53503;SDS011;39387;50.998;22.340;2023-02-19T08:40:37;7.85;;;4.65;;
53503;SDS011;39387;50.998;22.340;2023-02-19T08:43:06;8.35;;;4.25;;
53503;SDS011;39387;50.998;22.340;2023-02-19T08:45:35;7.82;;;3.80;;
53503;SDS011;39387;50.998;22.340;2023-02-19T08:48:03;9.27;;;4.72;;
53503;SDS011;39387;50.998;22.340;2023-02-19T08:50:31;6.78;;;4.05;;
53503;SDS011;39387;50.998;22.340;2023-02-19T08:52:59;6.85;;;3.88;;
53503;SDS011;39387;50.998;22.340;2023-02-19T08:55:27;7.50;;;3.85;;
53503;SDS011;39387;50.998;22.340;2023-02-19T08:57:55;7.25;;;4.28;;
53503;SDS011;39387;50.998;22.340;2023-02-19T09:00:22;9.07;;;4.45;;
53503;SDS011;39387;50.998;22.340;2023-02-19T09:02:50;9.35;;;4.30;;
53503;SDS011;39387;50.998;22.340;2023-02-19T09:05:17;8.20;;;4.53;;
53503;SDS011;39387;50.998;22.340;2023-02-19T09:07:45;8.30;;;4.68;;
53503;SDS011;39387;50.998;22.340;2023-02-19T09:10:14;9.80;;;4.90;;
53503;SDS011;39387;50.998;22.340;2023-02-19T09:12:41;8.70;;;4.65;;
53503;SDS011;39387;50.998;22.340;2023-02-19T09:15:08;7.03;;;4.20;;
53503;SDS011;39387;50.998;22.340;2023-02-19T09:17:36;6.90;;;4.22;;
53503;SDS011;39387;50.998;22.340;2023-02-19T09:20:03;8.80;;;4.97;;
53503;SDS011;39387;50.998;22.340;2023-02-19T09:22:31;7.75;;;4.10;;
53503;SDS011;39387;50.998;22.340;2023-02-19T09:24:59;6.85;;;4.07;;
53503;SDS011;39387;50.998;22.340;2023-02-19T09:27:28;8.23;;;3.55;;
53503;SDS011;39387;50.998;22.340;2023-02-19T09:29:57;4.43;;;3.25;;
53503;SDS011;39387;50.998;22.340;2023-02-19T09:32:24;11.13;;;5.68;;
53503;SDS011;39387;50.998;22.340;2023-02-19T09:34:51;6.15;;;3.20;;
53503;SDS011;39387;50.998;22.340;2023-02-19T09:37:19;6.28;;;3.10;;
53503;SDS011;39387;50.998;22.340;2023-02-19T09:39:46;6.53;;;3.70;;
53503;SDS011;39387;50.998;22.340;2023-02-19T09:42:14;6.95;;;3.45;;
53503;SDS011;39387;50.998;22.340;2023-02-19T09:44:45;6.43;;;3.80;;
53503;SDS011;39387;50.998;22.340;2023-02-19T09:47:15;9.27;;;4.20;;
53503;SDS011;39387;50.998;22.340;2023-02-19T09:49:44;7.65;;;4.55;;
53503;SDS011;39387;50.998;22.340;2023-02-19T09:52:17;4.05;;;2.22;;
53503;SDS011;39387;50.998;22.340;2023-02-19T09:54:49;3.85;;;1.88;;
53503;SDS011;39387;50.998;22.340;2023-02-19T09:57:22;2.90;;;1.88;;
53503;SDS011;39387;50.998;22.340;2023-02-19T09:59:54;2.85;;;1.60;;
53503;SDS011;39387;50.998;22.340;2023-02-19T10:02:24;4.38;;;1.48;;
53503;SDS011;39387;50.998;22.340;2023-02-19T10:04:52;3.67;;;1.50;;
53503;SDS011;39387;50.998;22.340;2023-02-19T10:07:20;3.55;;;1.35;;
53503;SDS011;39387;50.998;22.340;2023-02-19T10:09:51;2.53;;;1.30;;
53503;SDS011;39387;50.998;22.340;2023-02-19T10:12:22;1.40;;;1.00;;
53503;SDS011;39387;50.998;22.340;2023-02-19T10:14:54;1.77;;;0.98;;
53503;SDS011;39387;50.998;22.340;2023-02-19T10:17:25;2.92;;;1.38;;
53503;SDS011;39387;50.998;22.340;2023-02-19T10:19:56;2.22;;;1.20;;
53503;SDS011;39387;50.998;22.340;2023-02-19T10:22:24;3.10;;;1.30;;
53503;SDS011;39387;50.998;22.340;2023-02-19T10:24:52;3.65;;;1.42;;
53503;SDS011;39387;50.998;22.340;2023-02-19T10:27:20;2.85;;;1.60;;
53503;SDS011;39387;50.998;22.340;2023-02-19T10:29:48;3.92;;;1.77;;
53503;SDS011;39387;50.998;22.340;2023-02-19T10:32:22;3.53;;;1.83;;
53503;SDS011;39387;50.998;22.340;2023-02-19T10:35:06;4.05;;;1.52;;
53503;SDS011;39387;50.998;22.340;2023-02-19T10:37:35;4.60;;;2.08;;
53503;SDS011;39387;50.998;22.340;2023-02-19T10:42:43;3.53;;;1.92;;
53503;SDS011;39387;50.998;22.340;2023-02-19T10:45:15;5.32;;;2.60;;
53503;SDS011;39387;50.998;22.340;2023-02-19T10:47:46;6.13;;;3.10;;
53503;SDS011;39387;50.998;22.340;2023-02-19T10:50:23;5.45;;;2.67;;
53503;SDS011;39387;50.998;22.340;2023-02-19T10:52:52;5.78;;;2.88;;
53503;SDS011;39387;50.998;22.340;2023-02-19T10:55:26;8.55;;;3.05;;
53503;SDS011;39387;50.998;22.340;2023-02-19T10:57:54;5.57;;;2.67;;
53503;SDS011;39387;50.998;22.340;2023-02-19T11:00:23;5.57;;;2.90;;
53503;SDS011;39387;50.998;22.340;2023-02-19T11:05:58;7.60;;;3.10;;
53503;SDS011;39387;50.998;22.340;2023-02-19T11:08:27;4.30;;;2.05;;
53503;SDS011;39387;50.998;22.340;2023-02-19T11:10:55;7.13;;;3.10;;
53503;SDS011;39387;50.998;22.340;2023-02-19T11:13:24;6.97;;;2.72;;
53503;SDS011;39387;50.998;22.340;2023-02-19T11:15:57;3.17;;;2.10;;
53503;SDS011;39387;50.998;22.340;2023-02-19T11:18:25;4.25;;;2.20;;
53503;SDS011;39387;50.998;22.340;2023-02-19T11:20:54;5.28;;;1.90;;
53503;SDS011;39387;50.998;22.340;2023-02-19T11:23:26;3.40;;;1.83;;
53503;SDS011;39387;50.998;22.340;2023-02-19T11:25:55;3.28;;;1.77;;
53503;SDS011;39387;50.998;22.340;2023-02-19T11:28:27;2.72;;;1.85;;
53503;SDS011;39387;50.998;22.340;2023-02-19T11:31:12;2.28;;;1.73;;
53503;SDS011;39387;50.998;22.340;2023-02-19T11:33:52;6.40;;;2.60;;
53503;SDS011;39387;50.998;22.340;2023-02-19T11:36:25;5.63;;;2.25;;
53503;SDS011;39387;50.998;22.340;2023-02-19T11:39:00;3.25;;;2.00;;
53503;SDS011;39387;50.998;22.340;2023-02-19T11:41:39;4.38;;;2.33;;
53503;SDS011;39387;50.998;22.340;2023-02-19T11:44:22;2.92;;;1.70;;
53503;SDS011;39387;50.998;22.340;2023-02-19T11:46:57;5.15;;;2.20;;
53503;SDS011;39387;50.998;22.340;2023-02-19T11:49:32;4.15;;;2.15;;
53503;SDS011;39387;50.998;22.340;2023-02-19T11:52:10;5.75;;;2.97;;
53503;SDS011;39387;50.998;22.340;2023-02-19T11:54:48;7.55;;;3.25;;
53503;SDS011;39387;50.998;22.340;2023-02-19T11:57:27;5.60;;;3.50;;
53503;SDS011;39387;50.998;22.340;2023-02-19T12:00:16;6.88;;;3.17;;
53503;SDS011;39387;50.998;22.340;2023-02-19T12:05:54;33.35;;;9.82;;
53503;SDS011;39387;50.998;22.340;2023-02-19T12:08:38;5.43;;;3.15;;
53503;SDS011;39387;50.998;22.340;2023-02-19T12:11:29;4.95;;;3.03;;
53503;SDS011;39387;50.998;22.340;2023-02-19T12:14:13;5.22;;;3.00;;
53503;SDS011;39387;50.998;22.340;2023-02-19T12:16:58;3.20;;;1.92;;
53503;SDS011;39387;50.998;22.340;2023-02-19T12:19:37;4.78;;;2.20;;
53503;SDS011;39387;50.998;22.340;2023-02-19T12:22:14;4.65;;;2.70;;
53503;SDS011;39387;50.998;22.340;2023-02-19T12:27:56;5.28;;;2.88;;
53503;SDS011;39387;50.998;22.340;2023-02-19T12:30:43;5.50;;;2.88;;
53503;SDS011;39387;50.998;22.340;2023-02-19T12:33:28;5.68;;;2.45;;
53503;SDS011;39387;50.998;22.340;2023-02-19T12:36:08;4.95;;;3.42;;
53503;SDS011;39387;50.998;22.340;2023-02-19T12:38:40;9.77;;;7.43;;
53503;SDS011;39387;50.998;22.340;2023-02-19T12:41:20;6.75;;;2.72;;
53503;SDS011;39387;50.998;22.340;2023-02-19T12:43:56;4.85;;;2.80;;
53503;SDS011;39387;50.998;22.340;2023-02-19T12:46:27;5.43;;;3.08;;
53503;SDS011;39387;50.998;22.340;2023-02-19T12:48:58;8.10;;;3.63;;
53503;SDS011;39387;50.998;22.340;2023-02-19T12:51:31;6.82;;;3.13;;
53503;SDS011;39387;50.998;22.340;2023-02-19T12:54:04;5.68;;;3.50;;
53503;SDS011;39387;50.998;22.340;2023-02-19T12:56:33;5.97;;;3.42;;
53503;SDS011;39387;50.998;22.340;2023-02-19T12:59:04;3.65;;;2.50;;
53503;SDS011;39387;50.998;22.340;2023-02-19T13:01:37;6.47;;;3.30;;
53503;SDS011;39387;50.998;22.340;2023-02-19T13:04:21;3.83;;;2.28;;
53503;SDS011;39387;50.998;22.340;2023-02-19T13:06:52;5.15;;;2.45;;
53503;SDS011;39387;50.998;22.340;2023-02-19T13:09:24;5.32;;;3.13;;
53503;SDS011;39387;50.998;22.340;2023-02-19T13:11:56;4.70;;;2.65;;
53503;SDS011;39387;50.998;22.340;2023-02-19T13:14:26;3.78;;;2.47;;
53503;SDS011;39387;50.998;22.340;2023-02-19T13:19:23;5.90;;;2.75;;
53503;SDS011;39387;50.998;22.340;2023-02-19T13:21:54;3.53;;;1.90;;
53503;SDS011;39387;50.998;22.340;2023-02-19T13:24:40;4.10;;;2.35;;
53503;SDS011;39387;50.998;22.340;2023-02-19T13:27:27;4.05;;;2.15;;
53503;SDS011;39387;50.998;22.340;2023-02-19T13:30:14;5.45;;;2.33;;
53503;SDS011;39387;50.998;22.340;2023-02-19T13:32:57;3.95;;;2.20;;
53503;SDS011;39387;50.998;22.340;2023-02-19T13:35:54;4.90;;;1.92;;
53503;SDS011;39387;50.998;22.340;2023-02-19T13:38:36;5.97;;;2.35;;
53503;SDS011;39387;50.998;22.340;2023-02-19T13:41:05;4.25;;;2.35;;
53503;SDS011;39387;50.998;22.340;2023-02-19T13:43:42;5.07;;;2.10;;
53503;SDS011;39387;50.998;22.340;2023-02-19T13:46:13;6.93;;;2.45;;
53503;SDS011;39387;50.998;22.340;2023-02-19T13:48:43;2.47;;;2.17;;
53503;SDS011;39387;50.998;22.340;2023-02-19T13:54:18;5.15;;;2.25;;
53503;SDS011;39387;50.998;22.340;2023-02-19T13:56:47;4.80;;;2.00;;
53503;SDS011;39387;50.998;22.340;2023-02-19T13:59:24;6.35;;;2.30;;
53503;SDS011;39387;50.998;22.340;2023-02-19T14:04:54;3.58;;;2.40;;
53503;SDS011;39387;50.998;22.340;2023-02-19T14:25:26;4.28;;;1.95;;
53503;SDS011;39387;50.998;22.340;2023-02-19T14:27:58;3.90;;;2.20;;
53503;SDS011;39387;50.998;22.340;2023-02-19T14:32:54;7.60;;;4.00;;
53503;SDS011;39387;50.998;22.340;2023-02-19T14:35:23;10.82;;;4.25;;
53503;SDS011;39387;50.998;22.340;2023-02-19T14:37:52;18.10;;;6.07;;
53503;SDS011;39387;50.998;22.340;2023-02-19T14:40:22;14.63;;;5.38;;
53503;SDS011;39387;50.998;22.340;2023-02-19T14:42:53;16.70;;;6.60;;
53503;SDS011;39387;50.998;22.340;2023-02-19T14:45:21;14.15;;;4.97;;
53503;SDS011;39387;50.998;22.340;2023-02-19T14:47:48;7.57;;;3.67;;
53503;SDS011;39387;50.998;22.340;2023-02-19T14:50:19;8.48;;;3.22;;
53503;SDS011;39387;50.998;22.340;2023-02-19T14:52:51;8.10;;;3.42;;
53503;SDS011;39387;50.998;22.340;2023-02-19T14:55:22;4.38;;;2.67;;
53503;SDS011;39387;50.998;22.340;2023-02-19T14:57:53;7.50;;;2.83;;
53503;SDS011;39387;50.998;22.340;2023-02-19T15:00:23;5.65;;;2.88;;
53503;SDS011;39387;50.998;22.340;2023-02-19T15:02:53;6.60;;;2.97;;
53503;SDS011;39387;50.998;22.340;2023-02-19T15:05:23;8.02;;;3.85;;
53503;SDS011;39387;50.998;22.340;2023-02-19T15:07:51;5.45;;;3.35;;
53503;SDS011;39387;50.998;22.340;2023-02-19T15:10:19;7.97;;;3.08;;
53503;SDS011;39387;50.998;22.340;2023-02-19T15:12:48;10.77;;;3.50;;
53503;SDS011;39387;50.998;22.340;2023-02-19T15:15:19;12.33;;;4.93;;
53503;SDS011;39387;50.998;22.340;2023-02-19T15:17:48;11.15;;;5.75;;
53503;SDS011;39387;50.998;22.340;2023-02-19T15:20:17;7.88;;;4.72;;
53503;SDS011;39387;50.998;22.340;2023-02-19T15:22:47;7.03;;;4.45;;
53503;SDS011;39387;50.998;22.340;2023-02-19T15:25:15;8.43;;;4.78;;
53503;SDS011;39387;50.998;22.340;2023-02-19T15:27:43;6.65;;;3.60;;
53503;SDS011;39387;50.998;22.340;2023-02-19T15:30:19;9.60;;;3.78;;
53503;SDS011;39387;50.998;22.340;2023-02-19T15:32:51;9.18;;;3.67;;
53503;SDS011;39387;50.998;22.340;2023-02-19T15:35:19;9.45;;;3.40;;
53503;SDS011;39387;50.998;22.340;2023-02-19T15:37:49;8.60;;;3.88;;